Time;durP1;ratioP1;P1;durP2;ratioP2;P2;SDS_P1;SDS_P2;PMS_P1;PMS_P2;Temp;Humidity;BMP_temperature;BMP_pressure;BME280_temperature;BME280_humidity;BME280_pressure;Samples;Min_cycle;Max_cycle;Signal;HPM_P1;HPM_P2
2022/09/11 00:01:17;;;;;;;27.55;24.55;;;;;;;15.33;87.37;101493.44;3585091;39;20389;-64
2022/09/11 00:03:45;;;;;;;33.10;26.40;;;;;;;15.33;87.08;101492.59;3587013;39;20049;-65
2022/09/11 00:06:19;;;;;;;28.15;24.02;;;;;;;15.31;86.22;101497.22;3586344;39;20051;-66
2022/09/11 00:08:48;;;;;;;26.27;23.50;;;;;;;15.30;87.69;101492.81;3590011;39;20454;-66
2022/09/11 00:11:18;;;;;;;31.15;24.75;;;;;;;15.30;87.33;101500.94;3588278;39;20044;-65
2022/09/11 00:13:50;;;;;;;29.50;25.15;;;;;;;15.29;86.86;101499.19;3586562;39;20049;-65
2022/09/11 00:16:32;;;;;;;26.05;21.58;;;;;;;15.26;86.76;101496.72;3590235;39;20047;-65
2022/09/11 00:19:04;;;;;;;23.77;21.17;;;;;;;15.25;87.42;101501.22;3592312;39;20063;-66
2022/09/11 00:21:30;;;;;;;23.40;20.75;;;;;;;15.24;87.25;101493.22;3586679;39;20110;-65
2022/09/11 00:23:57;;;;;;;23.67;20.40;;;;;;;15.01;86.94;101452.41;3589132;39;20059;-66
2022/09/11 00:26:25;;;;;;;23.70;20.30;;;;;;;15.21;86.58;101496.16;3586667;39;20060;-66
2022/09/11 00:28:52;;;;;;;24.27;19.88;;;;;;;15.16;86.92;101499.19;3587105;39;20297;-66
2022/09/11 00:31:23;;;;;;;24.95;21.48;;;;;;;15.14;87.21;101503.84;3589318;39;20053;-66
2022/09/11 00:33:50;;;;;;;24.25;20.13;;;;;;;15.13;87.88;101506.66;3590806;39;20664;-65
2022/09/11 00:36:30;;;;;;;25.92;21.85;;;;;;;15.11;87.25;101511.31;3587759;39;20053;-64
2022/09/11 00:38:56;;;;;;;22.92;20.40;;;;;;;15.07;87.22;101506.13;3590133;39;20053;-65
2022/09/11 00:41:35;;;;;;;22.50;19.85;;;;;;;15.05;86.85;101515.31;3588478;39;20170;-65
2022/09/11 00:44:07;;;;;;;22.52;19.90;;;;;;;15.00;87.32;101507.53;3592132;39;20267;-65
2022/09/11 00:46:57;;;;;;;23.95;19.83;;;;;;;14.95;87.27;101514.22;3585901;39;20057;-66
2022/09/11 00:49:46;;;;;;;21.88;19.52;;;;;;;14.92;87.08;101515.31;3585738;39;20060;-65
2022/09/11 00:52:30;;;;;;;24.90;22.20;;;;;;;14.92;87.33;101520.72;3583334;39;20048;-66
2022/09/11 00:55:13;;;;;;;28.05;24.23;;;;;;;14.76;88.03;101488.44;3588333;39;20048;-65
2022/09/11 00:57:50;;;;;;;30.58;24.27;;;;;;;14.95;88.75;101517.81;3585900;39;20413;-66
2022/09/11 01:00:16;;;;;;;27.33;23.13;;;;;;;14.96;89.01;101515.97;3588132;39;20047;-65
2022/09/11 01:02:47;;;;;;;29.20;22.75;;;;;;;14.95;88.34;101508.81;3589784;39;20133;-65
2022/09/11 01:05:15;;;;;;;29.60;24.50;;;;;;;14.97;88.69;101521.28;3587780;39;20051;-65
2022/09/11 01:07:44;;;;;;;28.88;24.08;;;;;;;14.95;88.43;101520.50;3586116;39;20061;-66
2022/09/11 01:10:11;;;;;;;27.48;23.55;;;;;;;14.85;88.49;101514.00;3587513;39;20462;-65
2022/09/11 01:13:08;;;;;;;29.45;24.98;;;;;;;14.93;88.12;101535.97;3576041;40;20052;-65
2022/09/11 01:16:19;;;;;;;31.75;24.25;;;;;;;14.86;88.57;101521.16;3582707;39;20060;-65
2022/09/11 01:19:40;;;;;;;30.00;24.95;;;;;;;14.90;88.10;101532.63;3589806;39;20086;-67
2022/09/11 01:22:34;;;;;;;32.08;27.00;;;;;;;14.89;88.54;101528.19;3585301;39;20125;-65
2022/09/11 01:25:05;;;;;;;36.20;25.95;;;;;;;14.90;89.30;101521.78;3590975;39;20486;-65
2022/09/11 01:27:46;;;;;;;32.50;26.25;;;;;;;14.90;88.74;101529.91;3585533;39;20056;-66
2022/09/11 01:30:39;;;;;;;33.03;27.58;;;;;;;14.89;88.65;101525.47;3586133;39;20380;-66
2022/09/11 01:33:11;;;;;;;33.83;27.77;;;;;;;14.86;88.80;101516.59;3586236;39;20075;-66
2022/09/11 01:36:27;;;;;;;32.80;28.05;;;;;;;14.84;88.61;101523.97;3589020;39;20078;-65
2022/09/11 01:39:02;;;;;;;28.95;25.75;;;;;;;14.56;88.32;101478.13;3553552;40;20508;-67
2022/09/11 01:41:59;;;;;;;36.33;29.20;;;;;;;14.80;87.60;101529.69;3553884;40;20176;-65
2022/09/11 01:44:38;;;;;;;35.28;27.88;;;;;;;14.79;87.91;101534.22;3582294;39;20185;-66
2022/09/11 01:47:10;;;;;;;36.08;27.42;;;;;;;14.62;87.75;101507.47;3588052;39;20063;-65
2022/09/11 01:49:49;;;;;;;31.85;26.77;;;;;;;14.70;88.03;101525.88;3587754;39;20310;-65
2022/09/11 01:52:26;;;;;;;33.25;26.92;;;;;;;14.77;87.33;101546.13;3588610;39;20117;-65
2022/09/11 01:55:07;;;;;;;33.20;28.10;;;;;;;14.76;87.79;101541.69;3585278;39;20045;-65
2022/09/11 01:57:43;;;;;;;32.10;27.52;;;;;;;14.73;87.66;101541.91;3586404;39;20060;-65
2022/09/11 02:00:12;;;;;;;31.50;27.63;;;;;;;14.74;87.82;101549.03;3586222;39;20355;-65
2022/09/11 02:02:47;;;;;;;31.63;27.08;;;;;;;14.71;87.50;101538.41;3585932;40;20047;-66
2022/09/11 02:05:30;;;;;;;30.48;26.60;;;;;;;14.68;87.33;101539.50;3586318;39;20052;-65
2022/09/11 02:08:29;;;;;;;28.65;25.35;;;;;;;14.64;87.81;101537.97;3587376;39;20055;-65
2022/09/11 02:11:06;;;;;;;33.17;27.42;;;;;;;14.61;87.74;101544.44;3589720;39;20056;-65
2022/09/11 02:13:35;;;;;;;33.58;27.02;;;;;;;14.60;87.88;101542.72;3594532;39;20052;-65
2022/09/11 02:16:52;;;;;;;34.63;27.98;;;;;;;14.58;87.49;101547.38;3599621;39;20055;-65
2022/09/11 02:19:29;;;;;;;32.03;26.92;;;;;;;14.43;87.24;101528.56;3589515;39;20301;-65
2022/09/11 02:21:57;;;;;;;35.17;28.00;;;;;;;14.54;87.41;101548.56;3588113;39;20059;-66
2022/09/11 02:24:26;;;;;;;30.27;26.15;;;;;;;14.53;87.58;101552.25;3595324;39;20058;-67
2022/09/11 02:27:02;;;;;;;35.13;27.92;;;;;;;14.50;87.28;101557.81;3594427;39;20094;-65
2022/09/11 02:29:28;;;;;;;35.25;27.92;;;;;;;14.52;87.72;101566.72;3592043;39;20052;-65
2022/09/11 02:31:55;;;;;;;36.78;29.58;;;;;;;14.51;87.48;101559.56;3591224;39;20060;-65
2022/09/11 02:34:28;;;;;;;35.17;28.95;;;;;;;14.32;87.48;101526.56;3593457;39;20076;-64
2022/09/11 02:37:17;;;;;;;;;;;;;;;14.46;87.52;101555.41;3602313;39;20066;-66
2022/09/11 02:40:09;;;;;;;34.58;28.63;;;;;;;14.44;87.34;101550.09;3593162;39;19932;-65
2022/09/11 02:43:16;;;;;;;34.45;28.17;;;;;;;14.43;87.69;101561.91;3593627;39;20084;-65
2022/09/11 02:46:15;;;;;;;35.40;29.90;;;;;;;14.43;87.86;101558.31;3596107;39;20066;-65
2022/09/11 02:49:34;;;;;;;38.33;30.40;;;;;;;14.39;88.06;101566.63;3590386;39;20349;-65
2022/09/11 02:52:53;;;;;;;36.25;28.15;;;;;;;14.39;87.94;101560.34;3585481;39;20091;-65
2022/09/11 02:55:27;;;;;;;35.22;30.30;;;;;;;14.39;87.96;101565.75;3587763;39;20350;-66
2022/09/11 02:58:18;;;;;;;37.63;29.23;;;;;;;14.36;87.63;101565.97;3593496;39;20084;-65
2022/09/11 03:00:45;;;;;;;39.45;29.25;;;;;;;14.36;87.78;101565.97;3597140;39;20069;-66
2022/09/11 03:03:11;;;;;;;36.55;29.55;;;;;;;14.36;87.63;101568.66;3593888;39;20044;-65
2022/09/11 03:05:39;;;;;;;40.10;31.58;;;;;;;14.34;87.58;101565.22;3585520;39;20051;-65
2022/09/11 03:08:06;;;;;;;35.00;27.33;;;;;;;14.33;86.93;101576.97;3591515;39;20046;-65
2022/09/11 03:10:33;;;;;;;36.60;29.92;;;;;;;14.28;87.38;101573.72;3588025;39;20435;-66
2022/09/11 03:12:59;;;;;;;40.97;30.20;;;;;;;14.31;87.69;101585.22;3590142;39;20118;-67
2022/09/11 03:15:25;;;;;;;46.60;32.20;;;;;;;14.31;87.57;101579.81;3594119;39;20048;-65
2022/09/11 03:17:51;;;;;;;45.28;32.83;;;;;;;14.29;87.22;101579.03;3596850;39;20067;-67
2022/09/11 03:20:18;;;;;;;48.55;31.80;;;;;;;14.30;88.32;101577.19;3587910;39;20086;-65
2022/09/11 03:22:44;;;;;;;53.70;30.27;;;;;;;14.20;88.71;101557.13;3590513;39;20050;-66
2022/09/11 03:25:10;;;;;;;43.50;32.60;;;;;;;14.33;89.41;101577.84;3597988;39;20067;-65
2022/09/11 03:27:38;;;;;;;43.78;31.20;;;;;;;14.34;89.09;101576.03;3588645;39;20044;-66
2022/09/11 03:30:05;;;;;;;63.97;32.47;;;;;;;14.35;89.02;101572.34;3588473;39;20047;-66
2022/09/11 03:32:31;;;;;;;62.38;30.70;;;;;;;14.34;89.49;101573.34;3597353;39;20085;-66
2022/09/11 03:34:57;;;;;;;49.22;29.65;;;;;;;14.33;88.94;101575.13;3592118;39;20386;-65
2022/09/11 03:37:23;;;;;;;42.10;29.35;;;;;;;14.30;89.34;101582.59;3598544;39;20055;-66
2022/09/11 03:39:48;;;;;;;42.22;28.95;;;;;;;14.31;89.60;101579.81;3588896;39;20341;-65
2022/09/11 03:42:14;;;;;;;61.75;28.92;;;;;;;14.25;89.16;101577.50;3595573;39;20445;-65
2022/09/11 03:44:40;;;;;;;48.45;30.55;;;;;;;14.01;89.28;101539.41;3596437;39;20050;-65
2022/09/11 03:47:06;;;;;;;54.88;28.10;;;;;;;14.23;89.77;101581.25;3591377;39;20365;-65
2022/09/11 03:49:32;;;;;;;52.70;29.40;;;;;;;14.20;89.92;101592.28;3594491;39;20436;-66
2022/09/11 03:51:59;;;;;;;49.33;29.73;;;;;;;14.16;90.18;101584.38;3592296;39;20338;-65
2022/09/11 03:54:26;;;;;;;41.88;30.38;;;;;;;14.15;90.20;101582.63;3596277;39;20116;-65
2022/09/11 03:56:52;;;;;;;50.40;28.23;;;;;;;14.09;89.88;101576.75;3591692;39;20068;-66
2022/09/11 03:59:18;;;;;;;36.38;30.35;;;;;;;14.12;90.25;101585.53;3600541;39;20058;-65
2022/09/11 04:01:44;;;;;;;37.38;28.08;;;;;;;14.12;90.03;101580.13;3598056;39;20053;-66
2022/09/11 04:04:10;;;;;;;46.28;27.27;;;;;;;14.11;89.96;101582.91;3593900;39;20060;-66
2022/09/11 04:06:35;;;;;;;44.10;27.75;;;;;;;14.09;89.61;101579.47;3597181;39;20058;-64
2022/09/11 04:09:01;;;;;;;36.20;28.52;;;;;;;14.04;89.78;101577.03;3596150;39;20058;-65
2022/09/11 04:11:27;;;;;;;33.53;27.85;;;;;;;14.06;89.95;101574.25;3591296;39;20066;-66
2022/09/11 04:13:53;;;;;;;32.85;27.73;;;;;;;14.04;89.73;101566.22;3591935;39;20064;-65
2022/09/11 04:16:19;;;;;;;35.13;28.20;;;;;;;14.00;89.70;101572.81;3599654;39;20070;-66
2022/09/11 04:18:48;;;;;;;35.80;28.42;;;;;;;14.00;90.11;101575.50;3596208;39;20067;-65
2022/09/11 04:21:17;;;;;;;41.10;28.38;;;;;;;14.00;90.13;101580.06;3590886;39;20305;-65
2022/09/11 04:23:44;;;;;;;34.17;29.25;;;;;;;14.01;90.30;101577.25;3587554;39;20048;-65
2022/09/11 04:26:19;;;;;;;33.58;28.25;;;;;;;14.01;90.42;101577.25;3584098;39;20303;-65
2022/09/11 04:28:45;;;;;;;47.03;28.50;;;;;;;14.03;90.33;101578.03;3584185;39;20072;-66
2022/09/11 04:31:15;;;;;;;48.78;29.25;;;;;;;14.01;90.45;101574.53;3599401;39;20100;-66
2022/09/11 04:33:42;;;;;;;43.05;27.25;;;;;;;14.05;90.48;101577.91;3594799;39;20047;-67
2022/09/11 04:36:12;;;;;;;42.28;29.15;;;;;;;14.01;90.49;101573.69;3595031;39;20057;-66
2022/09/11 04:38:40;;;;;;;44.15;28.20;;;;;;;13.99;90.63;101583.75;3592577;39;20047;-64
2022/09/11 04:41:07;;;;;;;32.58;27.92;;;;;;;13.95;90.17;101580.34;3587743;39;20072;-66
2022/09/11 04:43:38;;;;;;;33.72;29.42;;;;;;;13.96;91.16;101579.38;3595775;39;20376;-66
2022/09/11 04:46:11;;;;;;;35.85;27.15;;;;;;;13.97;90.89;101581.13;3586625;39;20123;-65
2022/09/11 04:48:54;;;;;;;37.53;27.38;;;;;;;13.97;90.51;101582.94;3595265;39;20310;-66
2022/09/11 04:51:24;;;;;;;31.52;26.92;;;;;;;13.97;90.97;101581.13;3589358;39;20059;-65
2022/09/11 04:53:51;;;;;;;35.20;26.58;;;;;;;13.95;90.29;101599.25;3598499;39;20058;-65
2022/09/11 04:56:21;;;;;;;34.72;27.65;;;;;;;13.93;89.95;101593.09;3596378;39;20048;-65
2022/09/11 04:58:54;;;;;;;38.03;27.02;;;;;;;13.89;89.55;101595.13;3593167;39;20070;-65
2022/09/11 05:01:21;;;;;;;38.88;27.25;;;;;;;13.87;89.74;101591.66;3597272;39;20328;-67
2022/09/11 05:03:47;;;;;;;37.90;27.08;;;;;;;13.89;90.99;101592.44;3596432;39;20076;-66
2022/09/11 05:06:15;;;;;;;40.65;25.75;;;;;;;13.89;89.89;101583.44;3589298;39;20063;-65
2022/09/11 05:08:45;;;;;;;53.83;24.90;;;;;;;13.87;89.90;101591.66;3591466;39;20052;-66
2022/09/11 05:11:15;;;;;;;35.20;26.05;;;;;;;13.80;89.70;101589.44;3589844;39;20120;-65
2022/09/11 05:13:42;;;;;;;47.00;25.92;;;;;;;13.73;89.37;101598.88;3588601;39;20395;-65
2022/09/11 05:16:12;;;;;;;51.75;26.75;;;;;;;13.69;89.63;101601.78;3593603;39;20055;-66
2022/09/11 05:18:42;;;;;;;42.13;25.70;;;;;;;13.65;89.91;101602.94;3587784;39;20059;-65
2022/09/11 05:21:14;;;;;;;39.80;25.83;;;;;;;13.63;90.26;101610.25;3587837;39;20052;-66
2022/09/11 05:23:41;;;;;;;28.73;24.40;;;;;;;13.42;90.39;101580.06;3595917;39;20355;-65
2022/09/11 05:26:15;;;;;;;28.80;25.02;;;;;;;13.61;90.68;101619.44;3597643;39;20052;-65
2022/09/11 05:28:41;;;;;;;26.80;24.00;;;;;;;13.62;91.38;101623.88;3590743;39;20076;-66
2022/09/11 05:31:17;;;;;;;31.95;23.90;;;;;;;13.62;91.00;101623.88;3592586;39;20403;-66
2022/09/11 05:33:46;;;;;;;25.15;22.65;;;;;;;13.41;90.20;101597.22;3596683;39;20043;-66
2022/09/11 05:36:15;;;;;;;24.63;21.92;;;;;;;13.61;89.78;101644.63;3598346;39;20412;-66
2022/09/11 05:38:41;;;;;;;27.00;20.40;;;;;;;13.58;89.26;101655.63;3587856;39;20060;-66
2022/09/11 05:41:12;;;;;;;24.25;21.80;;;;;;;13.57;89.38;101653.84;3593138;39;20084;-65
2022/09/11 05:43:40;;;;;;;22.05;19.95;;;;;;;13.38;88.90;101623.53;3588694;39;20063;-66
2022/09/11 05:46:11;;;;;;;22.23;19.38;;;;;;;13.52;88.39;101650.59;3587914;39;20104;-66
2022/09/11 05:48:37;;;;;;;21.15;18.95;;;;;;;13.47;88.12;101656.25;3591507;39;20096;-65
2022/09/11 05:51:23;;;;;;;24.52;19.25;;;;;;;13.43;88.21;101667.34;3599105;39;20343;-65
2022/09/11 05:53:54;;;;;;;21.65;19.35;;;;;;;13.45;88.79;101665.44;3582519;40;20052;-64
2022/09/11 05:56:23;;;;;;;20.80;18.75;;;;;;;12.89;87.97;101578.75;3591859;39;20329;-66
2022/09/11 05:58:53;;;;;;;22.17;18.92;;;;;;;13.44;88.05;101669.06;3593469;39;20126;-65
2022/09/11 06:01:25;;;;;;;20.58;18.48;;;;;;;13.44;88.28;101674.47;3592471;39;20105;-66
2022/09/11 06:03:52;;;;;;;20.63;18.75;;;;;;;13.46;88.59;101678.84;3582822;39;20060;-65
2022/09/11 06:06:21;;;;;;;21.80;18.83;;;;;;;13.46;88.54;101677.97;3592391;39;20346;-65
2022/09/11 06:08:48;;;;;;;20.83;18.80;;;;;;;13.47;87.91;101674.28;3588203;39;21550;-66
2022/09/11 06:11:18;;;;;;;23.17;17.65;;;;;;;13.48;87.89;101681.47;3587131;39;20051;-66
2022/09/11 06:13:46;;;;;;;21.17;19.27;;;;;;;13.53;88.65;101683.88;3589307;39;20059;-65
2022/09/11 06:16:20;;;;;;;21.33;19.38;;;;;;;13.57;88.60;101686.28;3593102;39;20059;-65
2022/09/11 06:18:48;;;;;;;20.90;18.90;;;;;;;13.62;88.88;101683.31;3589973;39;20071;-65
2022/09/11 06:21:19;;;;;;;22.02;19.77;;;;;;;13.66;88.34;101691.13;3592498;39;20051;-66
2022/09/11 06:23:51;;;;;;;22.00;19.77;;;;;;;13.74;88.93;101695.22;3588892;39;20060;-66
2022/09/11 06:26:20;;;;;;;23.95;19.58;;;;;;;13.78;88.01;101696.75;3594027;39;20055;-66
2022/09/11 06:28:47;;;;;;;30.85;19.17;;;;;;;13.81;88.52;101699.28;3594249;39;20068;-66
2022/09/11 06:31:16;;;;;;;27.15;22.17;;;;;;;13.85;89.03;101706.22;3601826;39;20078;-66
2022/09/11 06:33:42;;;;;;;32.72;21.98;;;;;;;13.92;89.99;101705.75;3597846;39;20060;-65
2022/09/11 06:36:26;;;;;;;25.63;21.63;;;;;;;14.00;89.88;101710.69;3591175;39;20044;-65
2022/09/11 06:38:57;;;;;;;31.08;19.00;;;;;;;13.98;88.67;101696.38;3595417;39;20342;-65
2022/09/11 06:41:25;;;;;;;27.02;19.90;;;;;;;14.10;88.11;101711.84;3588895;39;20039;-65
2022/09/11 06:43:52;;;;;;;26.35;19.52;;;;;;;14.14;88.11;101708.00;3591050;39;20129;-66
2022/09/11 06:46:21;;;;;;;27.38;19.95;;;;;;;14.19;87.88;101709.53;3592614;39;20059;-66
2022/09/11 06:48:50;;;;;;;21.80;19.45;;;;;;;14.20;88.09;101705.84;3588942;39;20172;-66
2022/09/11 06:51:19;;;;;;;31.88;20.05;;;;;;;14.25;87.49;101714.56;3592309;39;20054;-66
2022/09/11 06:53:46;;;;;;;21.10;18.95;;;;;;;14.27;87.99;101713.50;3595586;39;20064;-66
2022/09/11 06:56:17;;;;;;;25.33;20.20;;;;;;;14.34;88.22;101719.41;3593605;39;20077;-65
2022/09/11 06:58:44;;;;;;;22.20;18.63;;;;;;;14.35;87.27;101721.13;3588656;39;20078;-66
2022/09/11 07:01:16;;;;;;;34.95;20.20;;;;;;;14.39;88.63;101723.50;3592336;39;20309;-65
2022/09/11 07:03:44;;;;;;;31.02;20.98;;;;;;;14.44;88.68;101730.50;3589183;39;20067;-65
2022/09/11 07:06:16;;;;;;;26.80;19.10;;;;;;;14.52;88.56;101725.47;3598215;39;20399;-65
2022/09/11 07:08:41;;;;;;;29.55;20.40;;;;;;;14.60;88.17;101728.56;3589154;39;20122;-66
2022/09/11 07:11:12;;;;;;;26.77;19.40;;;;;;;14.64;87.92;101721.97;3592185;39;20058;-66
2022/09/11 07:13:38;;;;;;;24.15;19.38;;;;;;;14.70;87.82;101720.72;3591968;39;20419;-66
2022/09/11 07:16:09;;;;;;;23.50;18.95;;;;;;;14.76;87.66;101718.50;3585643;39;20056;-65
2022/09/11 07:18:38;;;;;;;27.52;20.10;;;;;;;14.86;87.81;101726.88;3582373;39;20466;-66
2022/09/11 07:21:11;;;;;;;30.77;21.42;;;;;;;14.97;88.31;101718.94;3591480;39;20051;-65
2022/09/11 07:23:39;;;;;;;26.42;19.50;;;;;;;15.05;88.53;101719.28;3592142;39;20058;-66
2022/09/11 07:26:09;;;;;;;24.77;21.00;;;;;;;15.16;87.10;101714.97;3581825;40;20052;-66
2022/09/11 07:28:36;;;;;;;21.77;19.48;;;;;;;15.20;87.45;101720.09;3593406;39;20271;-66
2022/09/11 07:31:09;;;;;;;27.17;19.45;;;;;;;15.29;86.89;101721.34;3587755;39;20360;-67
2022/09/11 07:33:37;;;;;;;20.10;18.02;;;;;;;15.36;86.85;101721.78;3581909;40;20395;-65
2022/09/11 07:36:11;;;;;;;20.88;18.40;;;;;;;15.48;86.44;101718.25;3584879;39;20055;-66
2022/09/11 07:38:45;;;;;;;20.83;17.38;;;;;;;15.59;86.72;101718.34;3588797;39;20056;-66
2022/09/11 07:41:14;;;;;;;29.88;19.23;;;;;;;15.68;87.52;101722.31;3591004;39;20051;-66
2022/09/11 07:43:41;;;;;;;22.70;18.33;;;;;;;15.75;86.75;101720.91;3591818;39;20050;-65
2022/09/11 07:46:09;;;;;;;31.90;18.48;;;;;;;15.64;86.19;101697.25;3591091;39;20047;-65
2022/09/11 07:48:35;;;;;;;25.55;20.15;;;;;;;15.82;85.83;101711.38;3595119;39;20061;-66
2022/09/11 07:51:05;;;;;;;24.45;19.75;;;;;;;15.92;86.08;101722.44;3591070;39;20444;-66
2022/09/11 07:53:37;;;;;;;24.42;20.33;;;;;;;16.07;87.30;101715.94;3588894;39;20142;-66
2022/09/11 07:56:06;;;;;;;29.67;19.95;;;;;;;16.19;87.35;101720.50;3595927;39;20044;-66
2022/09/11 07:58:38;;;;;;;28.27;21.80;;;;;;;16.25;86.86;101721.91;3588718;39;20048;-66
2022/09/11 08:01:08;;;;;;;25.27;20.98;;;;;;;16.36;87.34;101722.00;3592282;39;20282;-66
2022/09/11 08:03:35;;;;;;;25.25;21.65;;;;;;;16.51;87.32;101727.31;3594581;39;20417;-67
2022/09/11 08:06:13;;;;;;;24.15;21.65;;;;;;;16.70;86.85;101730.41;3589472;39;20048;-67
2022/09/11 08:08:42;;;;;;;25.05;20.55;;;;;;;16.63;85.63;101699.28;3585325;39;20064;-67
2022/09/11 08:11:15;;;;;;;24.42;20.63;;;;;;;16.92;85.00;101732.44;3590513;39;20121;-66
2022/09/11 08:13:41;;;;;;;23.58;20.58;;;;;;;16.97;84.46;101734.81;3588500;39;20406;-66
2022/09/11 08:16:07;;;;;;;25.50;22.63;;;;;;;17.09;85.43;101744.75;3592879;39;20056;-65
2022/09/11 08:18:34;;;;;;;26.48;23.55;;;;;;;17.22;85.35;101736.56;3583232;39;20099;-66
2022/09/11 08:21:05;;;;;;;26.58;22.75;;;;;;;17.36;85.40;101739.13;3590254;39;20063;-66
2022/09/11 08:23:31;;;;;;;24.58;21.90;;;;;;;17.45;83.72;101741.13;3585232;39;20196;-66
2022/09/11 08:26:16;;;;;;;26.48;23.65;;;;;;;17.51;84.88;101751.53;3581085;39;20383;-67
2022/09/11 08:28:44;;;;;;;25.88;23.08;;;;;;;17.57;83.43;101752.91;3588010;39;20068;-66
2022/09/11 08:31:12;;;;;;;29.05;25.05;;;;;;;17.63;83.62;101758.75;3593047;39;20060;-65
2022/09/11 08:33:38;;;;;;;28.30;25.20;;;;;;;17.69;82.40;101762.84;3582889;40;20083;-65
2022/09/11 08:36:13;;;;;;;25.05;21.63;;;;;;;17.75;81.91;101767.81;3583303;40;20324;-66
2022/09/11 08:38:41;;;;;;;24.63;21.95;;;;;;;17.76;80.72;101758.69;3595193;39;20138;-64
2022/09/11 08:41:36;;;;;;;26.80;23.17;;;;;;;17.80;82.26;101754.75;3594104;39;20051;-65
2022/09/11 08:44:20;;;;;;;26.70;23.88;;;;;;;17.85;82.65;101746.22;3585575;39;20048;-66
2022/09/11 08:46:58;;;;;;;24.65;22.20;;;;;;;17.95;81.83;101762.69;3588575;39;20119;-66
2022/09/11 08:49:35;;;;;;;26.92;23.90;;;;;;;18.12;81.38;101764.97;3598419;39;20055;-66
2022/09/11 08:52:04;;;;;;;25.50;22.80;;;;;;;18.14;81.82;101757.56;3582765;39;20126;-65
2022/09/11 08:54:40;;;;;;;26.85;24.15;;;;;;;18.31;81.03;101761.69;3585216;39;20070;-66
2022/09/11 08:57:19;;;;;;;24.20;21.67;;;;;;;18.63;78.84;101767.25;3588616;39;20052;-65
2022/09/11 09:00:13;;;;;;;39.95;31.95;;;;;;;19.09;78.88;101766.22;3597883;39;21433;-66
2022/09/11 09:03:05;;;;;;;26.63;23.67;;;;;;;19.44;76.21;101770.59;3588431;39;20155;-65
2022/09/11 09:05:51;;;;;;;25.83;22.23;;;;;;;19.79;76.09;101769.47;3590998;39;20088;-66
2022/09/11 09:08:43;;;;;;;25.85;23.10;;;;;;;20.05;74.24;101761.78;3592099;39;20401;-66
2022/09/11 09:11:21;;;;;;;22.35;20.05;;;;;;;20.31;74.68;101765.81;3589975;39;20368;-67
2022/09/11 09:14:42;;;;;;;22.13;19.92;;;;;;;20.72;72.06;101768.63;3589834;39;20108;-67
2022/09/11 09:17:28;;;;;;;23.00;19.33;;;;;;;21.05;71.83;101773.75;3591833;39;20095;-66
2022/09/11 09:20:32;;;;;;;20.70;18.58;;;;;;;21.46;70.08;101776.47;3592774;39;20106;-67
2022/09/11 09:23:10;;;;;;;19.45;17.55;;;;;;;21.30;67.98;101690.31;3594552;39;20443;-65
2022/09/11 09:25:41;;;;;;;19.80;17.90;;;;;;;22.10;66.12;101785.94;3594207;39;20055;-66
2022/09/11 09:28:23;;;;;;;19.27;17.48;;;;;;;22.00;64.28;101788.69;3588620;39;20290;-66
2022/09/11 09:31:02;;;;;;;19.95;17.95;;;;;;;21.73;67.28;101781.25;3589927;39;20049;-66
2022/09/11 09:33:53;;;;;;;19.85;17.83;;;;;;;21.52;66.38;101781.38;3593692;39;20079;-67
2022/09/11 09:36:59;;;;;;;19.67;17.27;;;;;;;21.49;67.12;101778.91;3587615;39;20047;-67
2022/09/11 09:39:25;;;;;;;20.20;18.15;;;;;;;21.66;67.14;101785.53;3588910;39;20047;-67
2022/09/11 09:41:51;;;;;;;19.30;17.27;;;;;;;22.10;64.22;101785.94;3594436;39;20092;-66
2022/09/11 09:44:45;;;;;;;19.02;17.23;;;;;;;22.52;64.34;101788.31;3593143;39;20405;-66
2022/09/11 09:47:13;;;;;;;17.33;15.52;;;;;;;22.86;62.22;101784.00;3589818;39;20052;-68
2022/09/11 09:49:40;;;;;;;17.50;15.80;;;;;;;22.86;59.87;101786.72;3586968;39;20307;-66
2022/09/11 09:52:23;;;;;;;17.27;15.48;;;;;;;22.81;60.15;101789.09;3588142;39;20055;-67
2022/09/11 09:54:59;;;;;;;15.77;14.18;;;;;;;22.62;60.28;101792.78;3588984;39;20076;-65
2022/09/11 09:57:31;;;;;;;16.63;15.02;;;;;;;22.50;60.95;101790.38;3590619;39;20333;-66
2022/09/11 10:00:10;;;;;;;16.83;15.20;;;;;;;22.43;60.25;101784.63;3594671;39;20390;-66
2022/09/11 10:02:44;;;;;;;16.95;15.27;;;;;;;22.45;61.20;101788.06;3583342;39;20071;-67
2022/09/11 10:05:31;;;;;;;16.75;15.15;;;;;;;22.69;60.67;101790.28;3593381;39;20047;-66
2022/09/11 10:08:02;;;;;;;18.55;16.65;;;;;;;22.52;59.78;101749.94;3599878;39;20052;-66
2022/09/11 10:10:36;;;;;;;8.32;7.53;;;;;;;22.49;58.00;101794.97;3594651;39;20052;-66
2022/09/11 10:13:23;;;;;;;11.57;10.07;;;;;;;22.28;59.99;101794.31;3600645;39;20054;-67
2022/09/11 10:15:52;;;;;;;12.73;11.43;;;;;;;22.44;59.69;101791.81;3590944;39;20056;-66
2022/09/11 10:18:29;;;;;;;15.13;12.70;;;;;;;22.69;58.46;101796.63;3596975;39;20067;-66
2022/09/11 10:21:21;;;;;;;17.60;15.90;;;;;;;22.67;57.58;101789.56;3589454;39;20133;-66
2022/09/11 10:23:57;;;;;;;12.60;11.30;;;;;;;22.97;56.90;101793.94;3594205;39;20062;-67
2022/09/11 10:26:49;;;;;;;16.08;13.77;;;;;;;23.14;56.92;101795.00;3596837;39;20102;-66
2022/09/11 10:29:25;;;;;;;12.63;11.32;;;;;;;23.03;56.81;101776.03;3588871;39;20059;-66
2022/09/11 10:32:04;;;;;;;15.77;13.55;;;;;;;23.08;57.11;101795.59;3592574;39;20056;-66
2022/09/11 10:34:39;;;;;;;13.35;12.00;;;;;;;22.87;57.73;101777.50;3589811;39;20044;-66
2022/09/11 10:37:29;;;;;;;13.40;12.10;;;;;;;22.84;59.62;101788.78;3592277;39;20310;-66
2022/09/11 10:40:07;;;;;;;14.93;13.52;;;;;;;22.86;58.62;101785.88;3593846;39;20114;-65
2022/09/11 10:42:36;;;;;;;14.70;13.27;;;;;;;22.77;57.87;101786.78;3588019;39;20102;-65
2022/09/11 10:45:15;;;;;;;19.75;17.73;;;;;;;22.58;56.99;101776.75;3589864;39;20056;-65
2022/09/11 10:47:42;;;;;;;16.02;14.38;;;;;;;22.55;58.43;101777.94;3589995;39;20061;-66
2022/09/11 10:50:16;;;;;;;18.70;16.50;;;;;;;22.50;59.76;101791.22;3586759;39;20048;-65
2022/09/11 10:53:02;;;;;;;16.10;14.50;;;;;;;22.40;60.60;101785.78;3591754;39;20473;-65
2022/09/11 10:55:44;;;;;;;14.35;12.77;;;;;;;22.35;59.75;101793.56;3594080;39;20070;-66
2022/09/11 10:58:21;;;;;;;18.60;16.63;;;;;;;22.31;58.13;101792.13;3589173;39;20056;-65
2022/09/11 11:00:50;;;;;;;15.10;12.90;;;;;;;22.37;58.49;101794.28;3585954;39;20048;-66
2022/09/11 11:03:24;;;;;;;11.75;10.55;;;;;;;22.50;58.30;101784.88;3591384;39;20283;-65
2022/09/11 11:06:33;;;;;;;11.77;10.57;;;;;;;22.63;57.68;101793.63;3592762;39;20059;-65
2022/09/11 11:09:26;;;;;;;10.20;9.20;;;;;;;22.92;56.26;101786.13;3590826;39;20060;-65
2022/09/11 11:12:40;;;;;;;15.48;13.95;;;;;;;23.68;55.48;101786.81;3576059;39;20394;-64
2022/09/11 11:15:40;;;;;;;128.73;116.70;;;;;;;24.14;54.40;101793.97;3591471;39;20059;-65
2022/09/11 11:18:39;;;;;;;14.43;12.70;;;;;;;24.52;54.78;101780.84;3589232;39;20048;-65
2022/09/11 11:21:39;;;;;;;12.00;10.50;;;;;;;24.70;53.18;101789.84;3591784;39;20407;-65
2022/09/11 11:24:26;;;;;;;11.23;10.15;;;;;;;24.42;54.32;101789.22;3587943;39;20067;-66
2022/09/11 11:27:26;;;;;;;11.38;10.27;;;;;;;24.14;53.87;101782.97;3591983;39;20048;-64
2022/09/11 11:30:02;;;;;;;10.55;9.48;;;;;;;23.82;54.64;101781.69;3584595;39;20383;-65
2022/09/11 11:33:00;;;;;;;9.80;8.80;;;;;;;23.70;53.48;101782.09;3595910;39;20044;-64
2022/09/11 11:35:40;;;;;;;12.15;10.85;;;;;;;23.53;53.82;101783.75;3588086;39;20047;-65
2022/09/11 11:38:17;;;;;;;14.20;12.85;;;;;;;23.84;53.67;101787.84;3588045;39;20052;-65
2022/09/11 11:40:55;;;;;;;13.98;12.60;;;;;;;24.29;51.30;101778.63;3592446;39;20080;-65
2022/09/11 11:43:30;;;;;;;7.70;6.82;;;;;;;24.79;49.60;101788.00;3591227;39;20503;-64
2022/09/11 11:46:14;;;;;;;9.77;8.13;;;;;;;25.25;49.29;101772.06;3589950;39;20134;-66